Airfield :
LOGIN :

Register | Disclaimer

   EN    FR    IT 

 










Legend :    VFR   Marginal VFR   IFR   Intensive IFR   Very Intensive IFR
Visi :
Ceiling :
>= 8 km
>= 3000ft
5 to 8 km
1000 to 3000 ft
1500m to 5 km
500 to 1000 ft
800 to 1500m
200 to 500 ft
< 800m
< 200 ft
Symbols :   Thunderstorms  Fog  Heavy snow  Heavy precipitations  Wind > 20 kt
SIGMETs :     Misc.  Thunderstorms  Icing  Turbulence  Mountain Waves  Volcanic Ashes







- Airport Elevation : 7 ft
- IATA code : ESH
- Download approach charts


EGKA - Shoreham

CURRENT METAR :
  • 211520Z 23012KT 9999 FEW014 BKN030 13/11 Q1010

EXPIRED METARs :
  • 211450Z 24012KT 9999 FEW018 SCT030 BKN045 13/10 Q1010
  • 211420Z 24010KT 9999 FEW018 SCT030 BKN045 13/11 Q1010
  • 211350Z 24012KT 9999 FEW016 SCT024 13/11 Q1011
  • 211320Z 24012KT 9999 FEW016 BKN020 13/10 Q1011
  • 211250Z 24010KT 9999 FEW016 BKN020 13/11 Q1011

TAF TAF EGKA
Valid from the 21 at 15:00 until the 21 at 20:00 UTC


211358Z 2115/2120 23014KT 9999 SCT025
TEMPO 2115/2120 23016G26KT
ATIS : +44 1273 467 372
No reported NOTAMs for that airfield.



MET'MAP, your aeronautical weather chart ! - Copyright ORBIFLY December 2007 - Disclaimer

ORBIFLY MET'MAP TEAM :

Programming & Development : Alexandra Zaïnal
Concept & Development : Baudouin d'Aumeries
Co-Development & Prog : Marc-Olivier Méhu
Technical & hardware support : Manuel Goepfert

Contact : metmap@orbifly.com




SOURCES & CREDITS :

   NOAA